sensor_id;sensor_type;location;lat;lon;timestamp;P1;durP1;ratioP1;P2;durP2;ratioP2
42668;SDS011;29384;42.028;21.388;2023-04-24T00:02:12;5.03;;;4.60;;
42668;SDS011;29384;42.028;21.388;2023-04-24T00:04:37;4.35;;;4.05;;
42668;SDS011;29384;42.028;21.388;2023-04-24T00:07:06;3.85;;;3.63;;
42668;SDS011;29384;42.028;21.388;2023-04-24T00:09:32;6.60;;;4.57;;
42668;SDS011;29384;42.028;21.388;2023-04-24T00:11:57;12.07;;;4.57;;
42668;SDS011;29384;42.028;21.388;2023-04-24T00:14:22;5.82;;;5.10;;
42668;SDS011;29384;42.028;21.388;2023-04-24T00:16:48;5.97;;;4.57;;
42668;SDS011;29384;42.028;21.388;2023-04-24T00:19:13;3.65;;;3.45;;
42668;SDS011;29384;42.028;21.388;2023-04-24T00:21:39;3.78;;;3.47;;
42668;SDS011;29384;42.028;21.388;2023-04-24T00:27:07;3.17;;;3.08;;
42668;SDS011;29384;42.028;21.388;2023-04-24T00:29:32;2.83;;;2.63;;
42668;SDS011;29384;42.028;21.388;2023-04-24T00:31:57;2.30;;;2.30;;
42668;SDS011;29384;42.028;21.388;2023-04-24T00:34:23;2.78;;;2.65;;
42668;SDS011;29384;42.028;21.388;2023-04-24T00:36:48;3.67;;;3.33;;
42668;SDS011;29384;42.028;21.388;2023-04-24T00:42:20;3.15;;;2.95;;
42668;SDS011;29384;42.028;21.388;2023-04-24T00:44:45;2.55;;;2.35;;
42668;SDS011;29384;42.028;21.388;2023-04-24T00:47:10;3.63;;;3.20;;
42668;SDS011;29384;42.028;21.388;2023-04-24T00:49:36;2.00;;;1.98;;
42668;SDS011;29384;42.028;21.388;2023-04-24T00:52:02;5.40;;;2.65;;
42668;SDS011;29384;42.028;21.388;2023-04-24T00:57:30;4.88;;;2.78;;
42668;SDS011;29384;42.028;21.388;2023-04-24T00:59:55;2.97;;;2.78;;
42668;SDS011;29384;42.028;21.388;2023-04-24T01:02:21;2.47;;;2.38;;
42668;SDS011;29384;42.028;21.388;2023-04-24T01:04:48;3.28;;;3.08;;
42668;SDS011;29384;42.028;21.388;2023-04-24T01:07:14;3.22;;;2.72;;
42668;SDS011;29384;42.028;21.388;2023-04-24T01:12:42;3.20;;;2.92;;
42668;SDS011;29384;42.028;21.388;2023-04-24T01:15:08;6.20;;;2.50;;
42668;SDS011;29384;42.028;21.388;2023-04-24T01:17:33;5.10;;;3.47;;
42668;SDS011;29384;42.028;21.388;2023-04-24T01:19:59;2.50;;;2.30;;
42668;SDS011;29384;42.028;21.388;2023-04-24T01:22:25;2.58;;;2.45;;
42668;SDS011;29384;42.028;21.388;2023-04-24T01:24:51;3.38;;;3.17;;
42668;SDS011;29384;42.028;21.388;2023-04-24T01:27:16;3.78;;;2.90;;
42668;SDS011;29384;42.028;21.388;2023-04-24T01:29:41;4.03;;;3.72;;
42668;SDS011;29384;42.028;21.388;2023-04-24T01:32:07;4.32;;;2.97;;
42668;SDS011;29384;42.028;21.388;2023-04-24T01:34:32;3.35;;;3.08;;
42668;SDS011;29384;42.028;21.388;2023-04-24T01:36:58;9.10;;;3.50;;
42668;SDS011;29384;42.028;21.388;2023-04-24T01:42:26;5.40;;;3.75;;
42668;SDS011;29384;42.028;21.388;2023-04-24T01:44:52;7.32;;;3.65;;
42668;SDS011;29384;42.028;21.388;2023-04-24T01:47:17;4.47;;;3.83;;
42668;SDS011;29384;42.028;21.388;2023-04-24T01:49:43;3.28;;;3.08;;
42668;SDS011;29384;42.028;21.388;2023-04-24T01:52:08;3.75;;;3.45;;
42668;SDS011;29384;42.028;21.388;2023-04-24T01:57:36;4.63;;;3.45;;
42668;SDS011;29384;42.028;21.388;2023-04-24T02:00:02;6.90;;;3.97;;
42668;SDS011;29384;42.028;21.388;2023-04-24T02:02:29;2.90;;;2.80;;
42668;SDS011;29384;42.028;21.388;2023-04-24T02:04:55;3.92;;;3.63;;
42668;SDS011;29384;42.028;21.388;2023-04-24T02:07:20;3.65;;;3.38;;
42668;SDS011;29384;42.028;21.388;2023-04-24T02:12:48;2.85;;;2.65;;
42668;SDS011;29384;42.028;21.388;2023-04-24T02:15:13;7.47;;;3.35;;
42668;SDS011;29384;42.028;21.388;2023-04-24T02:17:38;3.58;;;3.38;;
42668;SDS011;29384;42.028;21.388;2023-04-24T02:20:05;5.07;;;4.03;;
42668;SDS011;29384;42.028;21.388;2023-04-24T02:22:30;11.32;;;4.38;;
42668;SDS011;29384;42.028;21.388;2023-04-24T02:27:58;5.82;;;5.25;;
42668;SDS011;29384;42.028;21.388;2023-04-24T02:30:24;5.45;;;4.93;;
42668;SDS011;29384;42.028;21.388;2023-04-24T02:32:49;5.78;;;5.35;;
42668;SDS011;29384;42.028;21.388;2023-04-24T02:35:14;5.93;;;4.88;;
42668;SDS011;29384;42.028;21.388;2023-04-24T02:37:40;4.03;;;3.72;;
42668;SDS011;29384;42.028;21.388;2023-04-24T02:43:08;5.30;;;4.65;;
42668;SDS011;29384;42.028;21.388;2023-04-24T02:45:33;4.18;;;3.97;;
42668;SDS011;29384;42.028;21.388;2023-04-24T02:47:59;10.85;;;3.97;;
42668;SDS011;29384;42.028;21.388;2023-04-24T02:50:25;4.47;;;4.18;;
42668;SDS011;29384;42.028;21.388;2023-04-24T02:52:50;4.85;;;4.15;;
42668;SDS011;29384;42.028;21.388;2023-04-24T02:55:15;4.00;;;3.70;;
42668;SDS011;29384;42.028;21.388;2023-04-24T02:57:41;4.50;;;4.20;;
42668;SDS011;29384;42.028;21.388;2023-04-24T03:00:06;3.92;;;3.53;;
42668;SDS011;29384;42.028;21.388;2023-04-24T03:02:32;4.63;;;4.07;;
42668;SDS011;29384;42.028;21.388;2023-04-24T03:04:57;3.53;;;3.33;;
42668;SDS011;29384;42.028;21.388;2023-04-24T03:07:22;3.08;;;2.95;;
42668;SDS011;29384;42.028;21.388;2023-04-24T03:12:51;7.85;;;4.13;;
42668;SDS011;29384;42.028;21.388;2023-04-24T03:15:16;3.03;;;2.92;;
42668;SDS011;29384;42.028;21.388;2023-04-24T03:17:42;4.15;;;3.85;;
42668;SDS011;29384;42.028;21.388;2023-04-24T03:20:07;4.50;;;4.10;;
42668;SDS011;29384;42.028;21.388;2023-04-24T03:22:33;3.78;;;3.33;;
42668;SDS011;29384;42.028;21.388;2023-04-24T03:28:01;3.30;;;3.10;;
42668;SDS011;29384;42.028;21.388;2023-04-24T03:30:26;2.92;;;2.83;;
42668;SDS011;29384;42.028;21.388;2023-04-24T03:32:51;3.25;;;3.15;;
42668;SDS011;29384;42.028;21.388;2023-04-24T03:35:17;25.50;;;3.50;;
42668;SDS011;29384;42.028;21.388;2023-04-24T03:37:42;5.93;;;3.90;;
42668;SDS011;29384;42.028;21.388;2023-04-24T03:43:10;4.25;;;3.90;;
42668;SDS011;29384;42.028;21.388;2023-04-24T03:45:35;4.53;;;4.13;;
42668;SDS011;29384;42.028;21.388;2023-04-24T03:48:00;5.25;;;4.38;;
42668;SDS011;29384;42.028;21.388;2023-04-24T03:50:26;6.03;;;4.38;;
42668;SDS011;29384;42.028;21.388;2023-04-24T03:52:51;4.15;;;3.95;;
42668;SDS011;29384;42.028;21.388;2023-04-24T03:58:19;4.75;;;4.43;;
42668;SDS011;29384;42.028;21.388;2023-04-24T04:00:44;3.80;;;3.53;;
42668;SDS011;29384;42.028;21.388;2023-04-24T04:03:12;4.00;;;3.80;;
42668;SDS011;29384;42.028;21.388;2023-04-24T04:05:39;4.18;;;3.83;;
42668;SDS011;29384;42.028;21.388;2023-04-24T04:08:04;3.63;;;3.45;;
42668;SDS011;29384;42.028;21.388;2023-04-24T04:13:32;3.65;;;3.35;;
42668;SDS011;29384;42.028;21.388;2023-04-24T04:15:57;3.63;;;3.30;;
42668;SDS011;29384;42.028;21.388;2023-04-24T04:18:23;4.55;;;2.78;;
42668;SDS011;29384;42.028;21.388;2023-04-24T04:20:48;3.08;;;2.97;;
42668;SDS011;29384;42.028;21.388;2023-04-24T04:23:13;3.53;;;3.33;;
42668;SDS011;29384;42.028;21.388;2023-04-24T04:25:38;4.45;;;4.15;;
42668;SDS011;29384;42.028;21.388;2023-04-24T04:28:04;6.22;;;5.22;;
42668;SDS011;29384;42.028;21.388;2023-04-24T04:30:29;9.10;;;8.30;;
42668;SDS011;29384;42.028;21.388;2023-04-24T04:32:57;10.02;;;8.98;;
42668;SDS011;29384;42.028;21.388;2023-04-24T04:35:22;18.27;;;12.30;;
42668;SDS011;29384;42.028;21.388;2023-04-24T04:37:48;17.23;;;12.68;;
42668;SDS011;29384;42.028;21.388;2023-04-24T04:43:15;8.68;;;4.95;;
42668;SDS011;29384;42.028;21.388;2023-04-24T04:45:41;12.27;;;6.55;;
42668;SDS011;29384;42.028;21.388;2023-04-24T04:48:08;6.68;;;6.18;;
42668;SDS011;29384;42.028;21.388;2023-04-24T04:50:34;6.90;;;6.40;;
42668;SDS011;29384;42.028;21.388;2023-04-24T04:52:59;9.48;;;6.13;;
42668;SDS011;29384;42.028;21.388;2023-04-24T04:58:27;10.88;;;9.23;;
42668;SDS011;29384;42.028;21.388;2023-04-24T05:00:53;6.88;;;6.22;;
42668;SDS011;29384;42.028;21.388;2023-04-24T05:03:18;6.55;;;5.82;;
42668;SDS011;29384;42.028;21.388;2023-04-24T05:05:43;6.20;;;5.60;;
42668;SDS011;29384;42.028;21.388;2023-04-24T05:08:08;8.75;;;5.35;;
42668;SDS011;29384;42.028;21.388;2023-04-24T05:13:37;6.63;;;6.03;;
42668;SDS011;29384;42.028;21.388;2023-04-24T05:16:02;6.28;;;5.57;;
42668;SDS011;29384;42.028;21.388;2023-04-24T05:18:27;4.93;;;4.63;;
42668;SDS011;29384;42.028;21.388;2023-04-24T05:20:52;6.63;;;5.68;;
42668;SDS011;29384;42.028;21.388;2023-04-24T05:23:18;5.97;;;5.50;;
42668;SDS011;29384;42.028;21.388;2023-04-24T05:28:46;5.32;;;4.22;;
42668;SDS011;29384;42.028;21.388;2023-04-24T05:31:11;5.07;;;4.60;;
42668;SDS011;29384;42.028;21.388;2023-04-24T05:33:37;4.53;;;3.80;;
42668;SDS011;29384;42.028;21.388;2023-04-24T05:36:03;5.10;;;4.40;;
42668;SDS011;29384;42.028;21.388;2023-04-24T05:38:28;6.43;;;4.97;;
42668;SDS011;29384;42.028;21.388;2023-04-24T05:43:56;5.68;;;5.10;;
42668;SDS011;29384;42.028;21.388;2023-04-24T05:46:21;14.77;;;4.28;;
42668;SDS011;29384;42.028;21.388;2023-04-24T05:48:46;8.20;;;4.38;;
42668;SDS011;29384;42.028;21.388;2023-04-24T05:51:12;3.72;;;3.22;;
42668;SDS011;29384;42.028;21.388;2023-04-24T05:53:37;3.88;;;3.67;;
42668;SDS011;29384;42.028;21.388;2023-04-24T05:59:05;3.67;;;3.38;;
42668;SDS011;29384;42.028;21.388;2023-04-24T06:01:30;3.33;;;3.13;;
42668;SDS011;29384;42.028;21.388;2023-04-24T06:03:56;3.90;;;3.63;;
42668;SDS011;29384;42.028;21.388;2023-04-24T06:06:21;3.75;;;3.55;;
42668;SDS011;29384;42.028;21.388;2023-04-24T06:08:47;3.70;;;2.95;;
42668;SDS011;29384;42.028;21.388;2023-04-24T06:11:12;3.63;;;3.47;;
42668;SDS011;29384;42.028;21.388;2023-04-24T06:13:37;3.55;;;3.25;;
42668;SDS011;29384;42.028;21.388;2023-04-24T06:16:02;4.78;;;3.72;;
42668;SDS011;29384;42.028;21.388;2023-04-24T06:18:28;4.32;;;3.67;;
42668;SDS011;29384;42.028;21.388;2023-04-24T06:20:53;7.72;;;3.22;;
42668;SDS011;29384;42.028;21.388;2023-04-24T06:23:20;4.20;;;3.78;;
42668;SDS011;29384;42.028;21.388;2023-04-24T06:28:48;5.07;;;4.25;;
42668;SDS011;29384;42.028;21.388;2023-04-24T06:31:13;6.50;;;5.03;;
42668;SDS011;29384;42.028;21.388;2023-04-24T06:33:38;5.13;;;4.63;;
42668;SDS011;29384;42.028;21.388;2023-04-24T06:36:03;3.80;;;3.50;;
42668;SDS011;29384;42.028;21.388;2023-04-24T06:38:29;4.18;;;3.85;;
42668;SDS011;29384;42.028;21.388;2023-04-24T06:43:57;15.57;;;4.40;;
42668;SDS011;29384;42.028;21.388;2023-04-24T06:46:22;11.55;;;4.07;;
42668;SDS011;29384;42.028;21.388;2023-04-24T06:48:50;6.05;;;4.43;;
42668;SDS011;29384;42.028;21.388;2023-04-24T06:51:16;8.68;;;4.25;;
42668;SDS011;29384;42.028;21.388;2023-04-24T06:53:43;19.88;;;3.65;;
42668;SDS011;29384;42.028;21.388;2023-04-24T06:59:10;7.85;;;4.78;;
42668;SDS011;29384;42.028;21.388;2023-04-24T07:01:36;4.40;;;4.05;;
42668;SDS011;29384;42.028;21.388;2023-04-24T07:04:01;4.28;;;3.97;;
42668;SDS011;29384;42.028;21.388;2023-04-24T07:06:26;8.77;;;4.85;;
42668;SDS011;29384;42.028;21.388;2023-04-24T07:08:52;4.80;;;4.43;;
42668;SDS011;29384;42.028;21.388;2023-04-24T07:14:20;5.70;;;4.03;;
42668;SDS011;29384;42.028;21.388;2023-04-24T07:16:45;5.75;;;3.75;;
42668;SDS011;29384;42.028;21.388;2023-04-24T07:19:11;4.82;;;4.35;;
42668;SDS011;29384;42.028;21.388;2023-04-24T07:21:36;5.00;;;4.60;;
42668;SDS011;29384;42.028;21.388;2023-04-24T07:24:02;9.05;;;5.13;;
42668;SDS011;29384;42.028;21.388;2023-04-24T07:29:30;7.57;;;5.57;;
42668;SDS011;29384;42.028;21.388;2023-04-24T07:31:55;5.53;;;4.13;;
42668;SDS011;29384;42.028;21.388;2023-04-24T07:34:21;5.25;;;4.30;;
42668;SDS011;29384;42.028;21.388;2023-04-24T07:36:46;9.85;;;5.18;;
42668;SDS011;29384;42.028;21.388;2023-04-24T07:39:12;6.20;;;4.95;;
42668;SDS011;29384;42.028;21.388;2023-04-24T07:41:37;3.40;;;3.17;;
42668;SDS011;29384;42.028;21.388;2023-04-24T07:44:03;5.57;;;4.53;;
42668;SDS011;29384;42.028;21.388;2023-04-24T07:46:29;6.80;;;4.40;;
42668;SDS011;29384;42.028;21.388;2023-04-24T07:48:55;3.78;;;3.58;;
42668;SDS011;29384;42.028;21.388;2023-04-24T07:51:20;4.20;;;3.83;;
42668;SDS011;29384;42.028;21.388;2023-04-24T07:53:45;5.43;;;3.90;;
42668;SDS011;29384;42.028;21.388;2023-04-24T07:59:14;14.50;;;3.58;;
42668;SDS011;29384;42.028;21.388;2023-04-24T08:01:39;8.07;;;4.28;;
42668;SDS011;29384;42.028;21.388;2023-04-24T08:04:04;4.10;;;3.80;;
42668;SDS011;29384;42.028;21.388;2023-04-24T08:06:30;13.25;;;4.05;;
42668;SDS011;29384;42.028;21.388;2023-04-24T08:08:57;3.60;;;3.40;;
42668;SDS011;29384;42.028;21.388;2023-04-24T08:14:24;5.60;;;3.88;;
42668;SDS011;29384;42.028;21.388;2023-04-24T08:16:50;4.10;;;3.63;;
42668;SDS011;29384;42.028;21.388;2023-04-24T08:19:15;4.55;;;2.72;;
42668;SDS011;29384;42.028;21.388;2023-04-24T08:21:40;6.75;;;4.25;;
42668;SDS011;29384;42.028;21.388;2023-04-24T08:24:06;4.47;;;3.67;;
42668;SDS011;29384;42.028;21.388;2023-04-24T08:29:35;4.18;;;3.88;;
42668;SDS011;29384;42.028;21.388;2023-04-24T08:32:01;3.95;;;3.42;;
42668;SDS011;29384;42.028;21.388;2023-04-24T08:34:26;7.18;;;3.88;;
42668;SDS011;29384;42.028;21.388;2023-04-24T08:36:51;5.32;;;4.20;;
42668;SDS011;29384;42.028;21.388;2023-04-24T08:39:17;5.22;;;3.53;;
42668;SDS011;29384;42.028;21.388;2023-04-24T08:44:45;8.38;;;5.38;;
42668;SDS011;29384;42.028;21.388;2023-04-24T08:47:11;29.10;;;5.82;;
42668;SDS011;29384;42.028;21.388;2023-04-24T08:49:37;4.45;;;4.05;;
42668;SDS011;29384;42.028;21.388;2023-04-24T08:52:02;7.18;;;3.83;;
42668;SDS011;29384;42.028;21.388;2023-04-24T08:54:28;3.95;;;3.20;;
42668;SDS011;29384;42.028;21.388;2023-04-24T08:59:56;4.70;;;3.70;;
42668;SDS011;29384;42.028;21.388;2023-04-24T09:02:22;8.75;;;3.42;;
42668;SDS011;29384;42.028;21.388;2023-04-24T09:04:48;13.98;;;4.38;;
42668;SDS011;29384;42.028;21.388;2023-04-24T09:07:15;7.55;;;3.47;;
42668;SDS011;29384;42.028;21.388;2023-04-24T09:09:41;8.85;;;3.70;;
42668;SDS011;29384;42.028;21.388;2023-04-24T09:12:07;3.88;;;3.65;;
42668;SDS011;29384;42.028;21.388;2023-04-24T09:14:34;6.80;;;3.80;;
42668;SDS011;29384;42.028;21.388;2023-04-24T09:17:01;4.00;;;2.78;;
42668;SDS011;29384;42.028;21.388;2023-04-24T09:19:26;7.32;;;3.88;;
42668;SDS011;29384;42.028;21.388;2023-04-24T09:21:51;16.45;;;4.32;;
42668;SDS011;29384;42.028;21.388;2023-04-24T09:24:19;5.93;;;3.38;;
42668;SDS011;29384;42.028;21.388;2023-04-24T09:29:53;9.73;;;3.47;;
42668;SDS011;29384;42.028;21.388;2023-04-24T09:32:20;4.82;;;3.53;;
42668;SDS011;29384;42.028;21.388;2023-04-24T09:35:04;5.50;;;3.40;;
42668;SDS011;29384;42.028;21.388;2023-04-24T09:37:29;4.22;;;3.92;;
42668;SDS011;29384;42.028;21.388;2023-04-24T09:40:10;6.22;;;4.13;;
42668;SDS011;29384;42.028;21.388;2023-04-24T09:42:37;4.25;;;3.35;;
42668;SDS011;29384;42.028;21.388;2023-04-24T09:45:02;4.55;;;3.15;;
42668;SDS011;29384;42.028;21.388;2023-04-24T09:47:28;3.40;;;3.20;;
42668;SDS011;29384;42.028;21.388;2023-04-24T09:50:01;5.32;;;3.95;;
42668;SDS011;29384;42.028;21.388;2023-04-24T09:52:33;3.75;;;3.45;;
42668;SDS011;29384;42.028;21.388;2023-04-24T09:54:58;10.73;;;4.50;;
42668;SDS011;29384;42.028;21.388;2023-04-24T09:57:24;10.45;;;3.97;;
42668;SDS011;29384;42.028;21.388;2023-04-24T09:59:49;4.50;;;3.95;;
42668;SDS011;29384;42.028;21.388;2023-04-24T10:02:18;3.45;;;3.15;;
42668;SDS011;29384;42.028;21.388;2023-04-24T10:04:53;3.85;;;3.30;;
42668;SDS011;29384;42.028;21.388;2023-04-24T10:07:20;2.85;;;2.75;;
42668;SDS011;29384;42.028;21.388;2023-04-24T10:09:45;2.58;;;2.38;;
42668;SDS011;29384;42.028;21.388;2023-04-24T10:15:14;7.07;;;3.42;;
42668;SDS011;29384;42.028;21.388;2023-04-24T10:17:40;3.05;;;2.80;;
42668;SDS011;29384;42.028;21.388;2023-04-24T10:20:06;4.97;;;3.75;;
42668;SDS011;29384;42.028;21.388;2023-04-24T10:22:32;13.48;;;3.53;;
42668;SDS011;29384;42.028;21.388;2023-04-24T10:24:57;13.15;;;3.88;;
42668;SDS011;29384;42.028;21.388;2023-04-24T10:27:23;6.28;;;2.90;;
42668;SDS011;29384;42.028;21.388;2023-04-24T10:29:51;6.88;;;4.18;;
42668;SDS011;29384;42.028;21.388;2023-04-24T10:32:18;8.20;;;3.97;;
42668;SDS011;29384;42.028;21.388;2023-04-24T10:34:43;3.08;;;2.85;;
42668;SDS011;29384;42.028;21.388;2023-04-24T10:37:08;5.85;;;1.90;;
42668;SDS011;29384;42.028;21.388;2023-04-24T10:39:34;5.82;;;2.58;;
42668;SDS011;29384;42.028;21.388;2023-04-24T10:45:06;7.07;;;2.80;;
42668;SDS011;29384;42.028;21.388;2023-04-24T10:47:40;2.30;;;1.98;;
42668;SDS011;29384;42.028;21.388;2023-04-24T10:50:09;9.77;;;3.05;;
42668;SDS011;29384;42.028;21.388;2023-04-24T10:52:44;2.88;;;2.55;;
42668;SDS011;29384;42.028;21.388;2023-04-24T10:55:10;6.35;;;2.97;;
42668;SDS011;29384;42.028;21.388;2023-04-24T10:57:37;3.28;;;2.63;;
42668;SDS011;29384;42.028;21.388;2023-04-24T11:00:15;2.50;;;2.33;;
42668;SDS011;29384;42.028;21.388;2023-04-24T11:02:41;7.13;;;2.85;;
42668;SDS011;29384;42.028;21.388;2023-04-24T11:05:14;8.98;;;3.28;;
42668;SDS011;29384;42.028;21.388;2023-04-24T11:10:26;2.35;;;2.25;;
42668;SDS011;29384;42.028;21.388;2023-04-24T11:12:51;3.72;;;2.53;;
42668;SDS011;29384;42.028;21.388;2023-04-24T11:15:17;5.35;;;3.33;;
42668;SDS011;29384;42.028;21.388;2023-04-24T11:17:44;2.25;;;2.15;;
42668;SDS011;29384;42.028;21.388;2023-04-24T11:20:11;5.80;;;2.85;;
42668;SDS011;29384;42.028;21.388;2023-04-24T11:22:39;4.00;;;2.35;;
42668;SDS011;29384;42.028;21.388;2023-04-24T11:25:10;3.40;;;1.85;;
42668;SDS011;29384;42.028;21.388;2023-04-24T11:30:39;2.47;;;2.38;;
42668;SDS011;29384;42.028;21.388;2023-04-24T11:33:05;2.58;;;1.73;;
42668;SDS011;29384;42.028;21.388;2023-04-24T11:35:30;2.63;;;1.98;;
42668;SDS011;29384;42.028;21.388;2023-04-24T11:38:02;1.83;;;1.73;;
42668;SDS011;29384;42.028;21.388;2023-04-24T11:40:28;2.83;;;2.17;;
42668;SDS011;29384;42.028;21.388;2023-04-24T11:42:53;5.03;;;1.98;;
42668;SDS011;29384;42.028;21.388;2023-04-24T11:45:26;1.95;;;1.85;;
42668;SDS011;29384;42.028;21.388;2023-04-24T11:47:52;1.88;;;1.75;;
42668;SDS011;29384;42.028;21.388;2023-04-24T11:50:18;3.05;;;1.58;;
42668;SDS011;29384;42.028;21.388;2023-04-24T11:52:44;3.45;;;2.70;;
42668;SDS011;29384;42.028;21.388;2023-04-24T12:00:44;1.30;;;1.30;;
42668;SDS011;29384;42.028;21.388;2023-04-24T12:03:11;1.92;;;1.83;;
42668;SDS011;29384;42.028;21.388;2023-04-24T12:05:36;11.95;;;2.30;;
42668;SDS011;29384;42.028;21.388;2023-04-24T12:08:02;3.08;;;2.42;;
42668;SDS011;29384;42.028;21.388;2023-04-24T12:10:28;2.80;;;2.30;;
42668;SDS011;29384;42.028;21.388;2023-04-24T12:15:57;10.32;;;3.03;;
42668;SDS011;29384;42.028;21.388;2023-04-24T12:18:22;2.22;;;2.03;;
42668;SDS011;29384;42.028;21.388;2023-04-24T12:20:48;7.55;;;2.70;;
42668;SDS011;29384;42.028;21.388;2023-04-24T12:23:13;4.10;;;2.65;;
42668;SDS011;29384;42.028;21.388;2023-04-24T12:25:39;2.35;;;2.15;;
42668;SDS011;29384;42.028;21.388;2023-04-24T12:30:31;3.10;;;2.15;;
42668;SDS011;29384;42.028;21.388;2023-04-24T12:32:58;2.95;;;2.00;;
42668;SDS011;29384;42.028;21.388;2023-04-24T12:35:25;3.75;;;1.90;;
42668;SDS011;29384;42.028;21.388;2023-04-24T12:37:50;7.40;;;2.38;;
42668;SDS011;29384;42.028;21.388;2023-04-24T12:40:16;2.28;;;2.03;;
42668;SDS011;29384;42.028;21.388;2023-04-24T12:45:45;2.80;;;2.63;;
42668;SDS011;29384;42.028;21.388;2023-04-24T12:48:10;2.45;;;2.35;;
42668;SDS011;29384;42.028;21.388;2023-04-24T12:50:36;3.33;;;2.75;;
42668;SDS011;29384;42.028;21.388;2023-04-24T12:53:01;6.95;;;2.60;;
42668;SDS011;29384;42.028;21.388;2023-04-24T12:55:26;5.75;;;1.80;;
42668;SDS011;29384;42.028;21.388;2023-04-24T13:00:54;4.03;;;2.33;;
42668;SDS011;29384;42.028;21.388;2023-04-24T13:03:19;2.38;;;1.83;;
42668;SDS011;29384;42.028;21.388;2023-04-24T13:05:45;3.83;;;2.30;;
42668;SDS011;29384;42.028;21.388;2023-04-24T13:08:10;2.03;;;1.92;;
42668;SDS011;29384;42.028;21.388;2023-04-24T13:10:36;3.08;;;2.08;;
42668;SDS011;29384;42.028;21.388;2023-04-24T13:16:04;2.80;;;2.60;;
42668;SDS011;29384;42.028;21.388;2023-04-24T13:18:29;4.70;;;2.67;;
42668;SDS011;29384;42.028;21.388;2023-04-24T13:20:55;2.95;;;2.75;;
42668;SDS011;29384;42.028;21.388;2023-04-24T13:23:20;2.80;;;2.63;;
42668;SDS011;29384;42.028;21.388;2023-04-24T13:25:46;15.10;;;1.95;;
42668;SDS011;29384;42.028;21.388;2023-04-24T13:31:14;1.88;;;1.83;;
42668;SDS011;29384;42.028;21.388;2023-04-24T13:33:40;2.15;;;2.05;;
42668;SDS011;29384;42.028;21.388;2023-04-24T13:36:05;2.10;;;1.60;;
42668;SDS011;29384;42.028;21.388;2023-04-24T13:38:30;4.35;;;2.83;;
42668;SDS011;29384;42.028;21.388;2023-04-24T13:40:56;2.55;;;2.35;;
42668;SDS011;29384;42.028;21.388;2023-04-24T13:46:24;3.15;;;2.17;;
42668;SDS011;29384;42.028;21.388;2023-04-24T13:48:49;3.63;;;1.85;;
42668;SDS011;29384;42.028;21.388;2023-04-24T13:51:15;1.70;;;1.60;;
42668;SDS011;29384;42.028;21.388;2023-04-24T13:53:40;4.30;;;2.17;;
42668;SDS011;29384;42.028;21.388;2023-04-24T13:56:05;2.92;;;2.08;;
42668;SDS011;29384;42.028;21.388;2023-04-24T14:01:33;2.60;;;2.38;;
42668;SDS011;29384;42.028;21.388;2023-04-24T14:03:59;1.38;;;1.38;;
42668;SDS011;29384;42.028;21.388;2023-04-24T14:06:24;1.77;;;0.82;;
42668;SDS011;29384;42.028;21.388;2023-04-24T14:08:50;1.20;;;1.08;;
42668;SDS011;29384;42.028;21.388;2023-04-24T14:11:16;1.98;;;1.33;;
42668;SDS011;29384;42.028;21.388;2023-04-24T14:13:42;1.38;;;1.27;;
42668;SDS011;29384;42.028;21.388;2023-04-24T14:16:07;1.83;;;1.67;;
42668;SDS011;29384;42.028;21.388;2023-04-24T14:18:33;1.10;;;1.02;;
42668;SDS011;29384;42.028;21.388;2023-04-24T14:20:58;1.05;;;1.05;;
42668;SDS011;29384;42.028;21.388;2023-04-24T14:23:25;1.40;;;1.17;;
42668;SDS011;29384;42.028;21.388;2023-04-24T14:25:50;2.20;;;2.08;;
42668;SDS011;29384;42.028;21.388;2023-04-24T14:31:20;16.20;;;1.55;;
42668;SDS011;29384;42.028;21.388;2023-04-24T14:33:45;1.40;;;1.30;;
42668;SDS011;29384;42.028;21.388;2023-04-24T14:36:10;1.00;;;1.00;;
42668;SDS011;29384;42.028;21.388;2023-04-24T14:38:35;0.95;;;0.95;;
42668;SDS011;29384;42.028;21.388;2023-04-24T14:41:01;0.63;;;0.63;;
42668;SDS011;29384;42.028;21.388;2023-04-24T14:46:29;1.15;;;1.15;;
42668;SDS011;29384;42.028;21.388;2023-04-24T14:48:58;1.70;;;1.60;;
42668;SDS011;29384;42.028;21.388;2023-04-24T14:51:23;1.40;;;1.40;;
42668;SDS011;29384;42.028;21.388;2023-04-24T14:53:50;13.23;;;2.13;;
42668;SDS011;29384;42.028;21.388;2023-04-24T14:56:15;4.75;;;1.77;;
42668;SDS011;29384;42.028;21.388;2023-04-24T15:01:43;1.67;;;1.20;;
42668;SDS011;29384;42.028;21.388;2023-04-24T15:04:08;1.20;;;1.20;;
42668;SDS011;29384;42.028;21.388;2023-04-24T15:06:34;2.45;;;2.22;;
42668;SDS011;29384;42.028;21.388;2023-04-24T15:08:59;3.97;;;1.98;;
42668;SDS011;29384;42.028;21.388;2023-04-24T15:11:25;1.48;;;1.48;;
42668;SDS011;29384;42.028;21.388;2023-04-24T15:16:53;1.77;;;1.67;;
42668;SDS011;29384;42.028;21.388;2023-04-24T15:19:18;2.35;;;2.25;;
42668;SDS011;29384;42.028;21.388;2023-04-24T15:21:44;2.17;;;1.98;;
42668;SDS011;29384;42.028;21.388;2023-04-24T15:24:09;4.00;;;2.15;;
42668;SDS011;29384;42.028;21.388;2023-04-24T15:26:35;2.03;;;1.92;;
42668;SDS011;29384;42.028;21.388;2023-04-24T15:29:01;2.58;;;2.47;;
42668;SDS011;29384;42.028;21.388;2023-04-24T15:31:26;2.88;;;2.60;;
42668;SDS011;29384;42.028;21.388;2023-04-24T15:33:51;8.55;;;6.65;;
42668;SDS011;29384;42.028;21.388;2023-04-24T15:36:17;5.15;;;4.68;;
42668;SDS011;29384;42.028;21.388;2023-04-24T15:38:43;2.97;;;2.88;;
42668;SDS011;29384;42.028;21.388;2023-04-24T15:41:09;3.10;;;2.80;;
42668;SDS011;29384;42.028;21.388;2023-04-24T15:46:37;4.82;;;2.83;;
42668;SDS011;29384;42.028;21.388;2023-04-24T15:49:02;2.45;;;2.25;;
42668;SDS011;29384;42.028;21.388;2023-04-24T15:51:27;6.93;;;2.70;;
42668;SDS011;29384;42.028;21.388;2023-04-24T15:53:52;2.10;;;1.95;;
42668;SDS011;29384;42.028;21.388;2023-04-24T15:56:18;3.65;;;1.45;;
42668;SDS011;29384;42.028;21.388;2023-04-24T16:01:46;4.30;;;1.75;;
42668;SDS011;29384;42.028;21.388;2023-04-24T16:04:12;2.03;;;1.92;;
42668;SDS011;29384;42.028;21.388;2023-04-24T16:06:37;1.73;;;1.63;;
42668;SDS011;29384;42.028;21.388;2023-04-24T16:09:02;3.78;;;2.55;;
42668;SDS011;29384;42.028;21.388;2023-04-24T16:11:28;2.47;;;2.28;;
42668;SDS011;29384;42.028;21.388;2023-04-24T16:16:55;2.08;;;1.95;;
42668;SDS011;29384;42.028;21.388;2023-04-24T16:19:21;6.15;;;1.95;;
42668;SDS011;29384;42.028;21.388;2023-04-24T16:21:46;1.80;;;1.80;;
42668;SDS011;29384;42.028;21.388;2023-04-24T16:24:11;2.50;;;2.22;;
42668;SDS011;29384;42.028;21.388;2023-04-24T16:26:37;12.82;;;2.33;;
42668;SDS011;29384;42.028;21.388;2023-04-24T16:32:04;13.23;;;2.47;;
42668;SDS011;29384;42.028;21.388;2023-04-24T16:34:30;3.25;;;1.60;;
42668;SDS011;29384;42.028;21.388;2023-04-24T16:36:55;5.63;;;1.88;;
42668;SDS011;29384;42.028;21.388;2023-04-24T16:39:21;3.25;;;2.65;;
42668;SDS011;29384;42.028;21.388;2023-04-24T16:41:46;7.32;;;3.00;;
42668;SDS011;29384;42.028;21.388;2023-04-24T16:47:16;6.13;;;2.90;;
42668;SDS011;29384;42.028;21.388;2023-04-24T16:49:42;6.53;;;3.88;;
42668;SDS011;29384;42.028;21.388;2023-04-24T16:52:09;9.52;;;4.30;;
42668;SDS011;29384;42.028;21.388;2023-04-24T16:54:34;7.38;;;5.07;;
42668;SDS011;29384;42.028;21.388;2023-04-24T16:57:00;3.50;;;3.05;;
42668;SDS011;29384;42.028;21.388;2023-04-24T17:02:28;3.20;;;2.90;;
42668;SDS011;29384;42.028;21.388;2023-04-24T17:04:53;5.65;;;3.33;;
42668;SDS011;29384;42.028;21.388;2023-04-24T17:07:19;2.97;;;2.50;;
42668;SDS011;29384;42.028;21.388;2023-04-24T17:09:44;5.70;;;3.33;;
42668;SDS011;29384;42.028;21.388;2023-04-24T17:12:09;6.70;;;3.35;;